createdAt,value
2022-09-07T00:01:11.115Z,101159.34
2022-09-07T00:03:43.870Z,101157.44
2022-09-07T00:06:16.734Z,101154.31
2022-09-07T00:08:50.918Z,101151.66
2022-09-07T00:11:25.087Z,101150.75
2022-09-07T00:13:57.944Z,101150.28
2022-09-07T00:16:32.305Z,101146.84
2022-09-07T00:19:05.636Z,101141.56
2022-09-07T00:21:39.279Z,101146.25
2022-09-07T00:24:12.267Z,101155.84
2022-09-07T00:26:46.491Z,101154.06
2022-09-07T00:29:19.208Z,101153.38
2022-09-07T00:31:52.063Z,101151.00
2022-09-07T00:34:24.718Z,101154.50
2022-09-07T00:36:57.432Z,101165.06
2022-09-07T00:39:30.261Z,101165.53
2022-09-07T00:42:04.780Z,101163.34
2022-09-07T00:45:03.997Z,101161.03
2022-09-07T00:47:46.940Z,101170.00
2022-09-07T00:50:23.292Z,101185.59
2022-09-07T00:53:00.537Z,101183.25
2022-09-07T00:55:34.941Z,101191.66
2022-09-07T00:58:10.413Z,101190.19
2022-09-07T01:00:45.590Z,101194.63
2022-09-07T01:03:22.785Z,101200.66
2022-09-07T01:06:00.303Z,101207.16
2022-09-07T01:08:35.831Z,101203.66
2022-09-07T01:11:09.235Z,101201.31
2022-09-07T01:13:46.179Z,101203.66
2022-09-07T01:16:33.041Z,101198.38
2022-09-07T01:19:25.318Z,101199.38
2022-09-07T01:22:12.141Z,101200.97
2022-09-07T01:24:57.481Z,101189.81
2022-09-07T01:28:02.920Z,101185.19
2022-09-07T01:30:40.035Z,101182.50
2022-09-07T01:33:33.998Z,101181.97
2022-09-07T01:36:17.008Z,101182.22
2022-09-07T01:38:54.062Z,101180.59
2022-09-07T01:41:34.107Z,101185.31
2022-09-07T01:44:12.303Z,101187.78
2022-09-07T01:46:53.569Z,101189.41
2022-09-07T01:49:31.495Z,101191.88
2022-09-07T01:52:09.795Z,101187.84
2022-09-07T01:54:48.480Z,101186.03
2022-09-07T01:57:28.110Z,101185.34
2022-09-07T02:00:07.948Z,101185.25
2022-09-07T02:02:53.326Z,101186.91
2022-09-07T02:05:31.146Z,101183.75
2022-09-07T02:08:07.869Z,101178.19
2022-09-07T02:10:45.231Z,101174.34
2022-09-07T02:13:24.616Z,101182.34
2022-09-07T02:16:02.075Z,101188.81
2022-09-07T02:18:40.462Z,101184.91
2022-09-07T02:21:18.455Z,101175.75
2022-09-07T02:23:55.168Z,101174.53
2022-09-07T02:26:29.708Z,101168.25
2022-09-07T02:29:02.825Z,101173.03
2022-09-07T02:31:35.648Z,101166.34
2022-09-07T02:34:10.112Z,101175.03
2022-09-07T02:36:47.738Z,101171.53
2022-09-07T02:39:20.550Z,101173.66
2022-09-07T02:41:53.314Z,101170.16
2022-09-07T02:44:31.603Z,101175.72
2022-09-07T02:47:18.938Z,101171.03
2022-09-07T02:50:11.247Z,101172.69
2022-09-07T02:52:57.680Z,101180.53
2022-09-07T02:55:41.845Z,101171.22
2022-09-07T02:58:24.818Z,101170.25
2022-09-07T03:01:06.517Z,101172.25
2022-09-07T03:03:46.689Z,101167.53
2022-09-07T03:06:27.396Z,101172.25
2022-09-07T03:09:02.979Z,101153.59
2022-09-07T03:11:37.540Z,101149.59
2022-09-07T03:14:14.772Z,101152.53
2022-09-07T03:16:49.168Z,101154.97
2022-09-07T03:19:22.059Z,101148.00
2022-09-07T03:21:56.129Z,101159.88
2022-09-07T03:24:28.804Z,101154.81
2022-09-07T03:27:02.046Z,101161.16
2022-09-07T03:29:35.909Z,101155.16
2022-09-07T03:32:11.090Z,101161.66
2022-09-07T03:34:44.003Z,101156.66
2022-09-07T03:37:18.044Z,101154.94
2022-09-07T03:39:50.930Z,101153.72
2022-09-07T03:42:24.356Z,101162.59
2022-09-07T03:44:57.167Z,101166.69
2022-09-07T03:47:29.823Z,101163.47
2022-09-07T03:50:02.856Z,101165.91
2022-09-07T03:52:37.172Z,101159.25
2022-09-07T03:55:10.184Z,101151.75
2022-09-07T03:57:43.520Z,101158.19
2022-09-07T04:00:16.352Z,101165.00
2022-09-07T04:02:49.103Z,101174.19
2022-09-07T04:05:21.925Z,101168.72
2022-09-07T04:07:56.114Z,101169.16
2022-09-07T04:10:28.807Z,101150.78
2022-09-07T04:13:01.542Z,101162.38
2022-09-07T04:15:34.594Z,101163.22
2022-09-07T04:18:07.250Z,101168.09
2022-09-07T04:20:39.921Z,101162.16
2022-09-07T04:23:14.264Z,101171.22
2022-09-07T04:25:50.640Z,101164.09
2022-09-07T04:28:23.585Z,101162.94
2022-09-07T04:30:56.180Z,101156.81
2022-09-07T04:33:31.858Z,101157.94
2022-09-07T04:36:05.756Z,101160.72
2022-09-07T04:38:40.914Z,101158.03
2022-09-07T04:41:15.791Z,101154.81
2022-09-07T04:43:48.603Z,101158.09
2022-09-07T04:46:22.773Z,101154.81
2022-09-07T04:48:57.608Z,101146.53
2022-09-07T04:51:32.536Z,101149.47
2022-09-07T04:54:07.321Z,101143.91
2022-09-07T04:56:40.109Z,101149.53
2022-09-07T04:59:13.106Z,101138.53
2022-09-07T05:01:45.704Z,101133.84
2022-09-07T05:04:18.910Z,101135.41
2022-09-07T05:06:51.568Z,101144.88
2022-09-07T05:09:25.553Z,101137.75
2022-09-07T05:11:58.295Z,101137.84
2022-09-07T05:14:31.049Z,101136.28
2022-09-07T05:17:04.524Z,101143.84
2022-09-07T05:19:37.615Z,101147.13
2022-09-07T05:22:10.275Z,101135.66
2022-09-07T05:24:44.568Z,101135.66
2022-09-07T05:27:18.184Z,101131.78
2022-09-07T05:30:06.593Z,101137.34
2022-09-07T05:32:39.811Z,101133.34
2022-09-07T05:35:12.524Z,101137.00
2022-09-07T05:37:45.891Z,101134.28
2022-09-07T05:40:20.176Z,101135.00
2022-09-07T05:42:52.979Z,101123.22
2022-09-07T05:45:25.704Z,101126.44
2022-09-07T05:47:58.635Z,101135.91
2022-09-07T05:50:31.261Z,101131.13
2022-09-07T05:53:04.701Z,101141.84
2022-09-07T05:55:38.841Z,101147.78
2022-09-07T05:58:11.543Z,101148.63
2022-09-07T06:00:44.341Z,101145.56
2022-09-07T06:03:17.187Z,101144.41
2022-09-07T06:05:49.829Z,101148.41
2022-09-07T06:08:22.532Z,101149.19
2022-09-07T06:10:57.395Z,101152.41
2022-09-07T06:13:30.224Z,101152.75
2022-09-07T06:16:03.448Z,101156.31
2022-09-07T06:18:37.828Z,101158.78
2022-09-07T06:21:14.248Z,101168.31
2022-09-07T06:23:48.580Z,101159.97
2022-09-07T06:26:22.663Z,101168.72
2022-09-07T06:28:57.882Z,101172.28
2022-09-07T06:31:30.979Z,101171.88
2022-09-07T06:34:03.603Z,101181.31
2022-09-07T06:36:36.609Z,101182.13
2022-09-07T06:39:10.176Z,101189.66
2022-09-07T06:42:00.057Z,101193.56
2022-09-07T06:44:36.814Z,101190.78
2022-09-07T06:47:10.729Z,101192.78
2022-09-07T06:49:43.647Z,101195.22
2022-09-07T06:52:16.483Z,101198.69
2022-09-07T06:57:31.614Z,101192.34
2022-09-07T07:00:05.632Z,101196.31
2022-09-07T07:02:38.390Z,101193.53
2022-09-07T07:05:11.505Z,101200.22
2022-09-07T07:07:44.214Z,101196.66
2022-09-07T07:10:19.745Z,101193.78
2022-09-07T07:12:58.448Z,101205.34
2022-09-07T07:15:31.770Z,101211.66
2022-09-07T07:18:19.695Z,101210.75
2022-09-07T07:20:53.832Z,101219.41
2022-09-07T07:23:26.750Z,101208.13
2022-09-07T07:26:03.312Z,101208.50
2022-09-07T07:31:33.125Z,101216.72
2022-09-07T07:34:06.118Z,101214.31
2022-09-07T07:36:38.640Z,101213.44
2022-09-07T07:42:06.147Z,101227.56
2022-09-07T07:44:40.339Z,101226.78
2022-09-07T07:47:12.942Z,101221.91
2022-09-07T07:49:45.799Z,101223.25
2022-09-07T07:58:03.669Z,101213.81
2022-09-07T08:00:53.759Z,101206.63
2022-09-07T08:03:27.263Z,101204.94
2022-09-07T08:06:07.974Z,101203.06
2022-09-07T08:08:41.339Z,101194.72
2022-09-07T08:11:16.927Z,101200.00
2022-09-07T08:13:50.963Z,101196.91
2022-09-07T08:16:24.981Z,101194.34
2022-09-07T08:18:58.391Z,101193.41
2022-09-07T08:21:31.247Z,101194.72
2022-09-07T08:24:04.931Z,101196.75
2022-09-07T08:26:37.594Z,101191.44
2022-09-07T08:29:10.388Z,101192.47
2022-09-07T08:31:44.802Z,101197.97
2022-09-07T08:34:17.941Z,101198.91
2022-09-07T08:36:50.546Z,101193.50
2022-09-07T08:39:23.221Z,101195.09
2022-09-07T08:42:11.584Z,101193.25
2022-09-07T08:44:49.516Z,101195.38
2022-09-07T08:47:33.564Z,101191.25
2022-09-07T08:50:11.676Z,101196.41
2022-09-07T08:55:27.811Z,101195.78
2022-09-07T08:58:14.561Z,101204.69
2022-09-07T09:07:00.565Z,101203.50
2022-09-07T09:09:47.929Z,101198.69
2022-09-07T09:12:29.061Z,101197.03
2022-09-07T09:15:16.825Z,101196.94
2022-09-07T09:17:57.793Z,101202.97
2022-09-07T09:20:38.102Z,101201.53
2022-09-07T09:23:13.464Z,101204.34
2022-09-07T09:25:53.358Z,101212.19
2022-09-07T09:28:28.812Z,101207.59
2022-09-07T09:31:04.950Z,101210.38
2022-09-07T09:33:37.910Z,101210.03
2022-09-07T09:36:24.407Z,101211.50
2022-09-07T09:38:57.100Z,101210.72
2022-09-07T09:41:37.631Z,101213.50
2022-09-07T09:44:17.035Z,101206.38
2022-09-07T09:49:48.821Z,101194.13
2022-09-07T09:52:38.099Z,101198.56
2022-09-07T09:55:35.943Z,101198.47
2022-09-07T10:01:25.357Z,101195.31
2022-09-07T10:04:04.468Z,101190.59
2022-09-07T10:06:40.133Z,101195.34
2022-09-07T10:09:19.889Z,101193.03
2022-09-07T10:12:07.009Z,101188.97
2022-09-07T10:14:44.557Z,101199.69
2022-09-07T10:17:26.461Z,101199.31
2022-09-07T10:20:01.969Z,101194.44
2022-09-07T10:22:36.655Z,101190.75
2022-09-07T10:25:29.633Z,101197.31
2022-09-07T10:28:15.132Z,101203.25
2022-09-07T10:31:02.850Z,101185.13
2022-09-07T10:34:25.757Z,101187.59
2022-09-07T10:36:46.873Z,101191.25
2022-09-07T10:39:26.594Z,101191.06
2022-09-07T10:42:10.835Z,101183.34
2022-09-07T10:44:57.819Z,101199.59
2022-09-07T10:47:46.766Z,101181.78
2022-09-07T10:50:29.803Z,101175.84
2022-09-07T10:53:40.186Z,101179.63
2022-09-07T10:56:18.453Z,101183.97
2022-09-07T10:59:03.398Z,101176.63
2022-09-07T11:01:51.085Z,101180.91
2022-09-07T11:04:49.487Z,101178.88
2022-09-07T11:07:37.273Z,101171.25
2022-09-07T11:10:19.703Z,101177.00
2022-09-07T11:12:55.104Z,101170.31
2022-09-07T11:15:32.497Z,101163.16
2022-09-07T11:18:09.800Z,101175.31
2022-09-07T11:20:50.679Z,101169.38
2022-09-07T11:23:29.361Z,101163.78
2022-09-07T11:26:08.413Z,101172.19
2022-09-07T11:28:47.959Z,101170.00
2022-09-07T11:31:26.298Z,101167.16
2022-09-07T11:37:02.231Z,101164.94
2022-09-07T11:39:40.830Z,101168.66
2022-09-07T11:45:16.202Z,101175.94
2022-09-07T11:47:56.981Z,101171.31
2022-09-07T11:50:33.760Z,101163.47
2022-09-07T11:53:10.522Z,101168.81
2022-09-07T11:55:47.079Z,101173.44
2022-09-07T11:58:55.436Z,101167.56
2022-09-07T12:01:40.305Z,101160.22
2022-09-07T12:04:30.017Z,101161.56
2022-09-07T12:07:18.085Z,101160.97
2022-09-07T12:10:06.444Z,101167.28
2022-09-07T12:12:57.315Z,101164.47
2022-09-07T12:15:42.692Z,101169.13
2022-09-07T12:18:27.632Z,101161.94
2022-09-07T12:21:01.804Z,101159.19
2022-09-07T12:23:34.634Z,101161.31
2022-09-07T12:26:25.106Z,101157.75
2022-09-07T12:29:06.732Z,101149.56
2022-09-07T12:31:57.313Z,101156.66
2022-09-07T12:34:50.849Z,101155.84
2022-09-07T12:37:37.826Z,101155.16
2022-09-07T12:40:48.744Z,101156.84
2022-09-07T12:44:07.015Z,101158.09
2022-09-07T12:46:53.212Z,101147.78
2022-09-07T12:49:37.711Z,101145.09
2022-09-07T12:52:45.653Z,101149.81
2022-09-07T12:55:33.402Z,101137.78
2022-09-07T12:58:37.783Z,101137.75
2022-09-07T13:01:27.214Z,101133.19
2022-09-07T13:04:16.523Z,101131.69
2022-09-07T13:07:07.455Z,101123.41
2022-09-07T13:09:42.356Z,101124.03
2022-09-07T13:15:41.372Z,101122.25
2022-09-07T13:18:43.330Z,101112.56
2022-09-07T13:21:35.333Z,101112.41
2022-09-07T13:24:47.317Z,101112.03
2022-09-07T13:27:53.825Z,101108.03
2022-09-07T13:30:38.415Z,101109.16
2022-09-07T13:33:43.618Z,101102.84
2022-09-07T13:36:25.504Z,101100.53
2022-09-07T13:38:59.201Z,101105.16
2022-09-07T13:41:36.905Z,101105.03
2022-09-07T13:44:25.092Z,101092.19
2022-09-07T13:47:08.418Z,101090.03
2022-09-07T13:50:05.390Z,101092.94
2022-09-07T13:52:52.469Z,101098.06
2022-09-07T13:55:34.119Z,101103.44
2022-09-07T13:58:15.302Z,101097.28
2022-09-07T14:00:55.069Z,101093.16
2022-09-07T14:03:33.529Z,101084.84
2022-09-07T14:06:31.169Z,101084.59
2022-09-07T14:09:06.982Z,101094.34
2022-09-07T14:11:42.101Z,101084.81
2022-09-07T14:14:17.536Z,101078.91
2022-09-07T14:17:02.313Z,101085.56
2022-09-07T14:19:40.627Z,101082.19
2022-09-07T14:22:16.767Z,101074.91
2022-09-07T14:24:51.833Z,101077.09
2022-09-07T14:27:27.155Z,101075.06
2022-09-07T14:30:16.057Z,101076.63
2022-09-07T14:32:52.702Z,101074.22
2022-09-07T14:35:28.313Z,101085.00
2022-09-07T14:38:06.833Z,101081.94
2022-09-07T14:40:39.746Z,101082.84
2022-09-07T14:43:28.367Z,101077.59
2022-09-07T14:46:14.633Z,101071.16
2022-09-07T14:48:51.487Z,101070.41
2022-09-07T14:51:35.113Z,101070.41
2022-09-07T14:54:10.091Z,101067.25
2022-09-07T14:56:43.811Z,101063.25
2022-09-07T14:59:36.674Z,101066.97
2022-09-07T15:02:24.020Z,101065.41
2022-09-07T15:05:22.993Z,101056.59
2022-09-07T15:07:58.054Z,101057.47
2022-09-07T15:10:37.441Z,101061.06
2022-09-07T15:13:25.894Z,101059.47
2022-09-07T15:16:01.179Z,101061.13
2022-09-07T15:18:54.465Z,101052.31
2022-09-07T15:21:30.392Z,101056.22
2022-09-07T15:24:04.559Z,101046.22
2022-09-07T15:29:33.509Z,101050.44
2022-09-07T15:32:09.917Z,101052.34
2022-09-07T15:34:43.290Z,101036.44
2022-09-07T15:40:17.341Z,101040.72
2022-09-07T15:43:19.621Z,101040.97
2022-09-07T15:45:42.782Z,101036.59
2022-09-07T15:48:16.793Z,101037.34
2022-09-07T15:50:50.090Z,101031.47
2022-09-07T15:56:20.363Z,101033.13
2022-09-07T15:58:54.251Z,101030.25
2022-09-07T16:04:19.706Z,101029.53
2022-09-07T16:06:52.252Z,101030.84
2022-09-07T16:09:26.730Z,101029.00
2022-09-07T16:12:59.947Z,101029.13
2022-09-07T16:14:56.455Z,101025.72
2022-09-07T16:17:35.743Z,101024.78
2022-09-07T16:20:10.341Z,101019.53
2022-09-07T16:25:38.322Z,101021.13
2022-09-07T16:28:11.711Z,101019.09
2022-09-07T16:30:44.695Z,101018.31
2022-09-07T16:33:17.417Z,101021.44
2022-09-07T16:35:59.568Z,101008.28
2022-09-07T16:38:48.356Z,101013.81
2022-09-07T16:41:26.391Z,101002.09
2022-09-07T16:43:59.939Z,101006.13
2022-09-07T16:46:34.793Z,100996.78
2022-09-07T16:49:08.083Z,101002.53
2022-09-07T16:51:41.032Z,101007.38
2022-09-07T16:54:15.789Z,101000.84
2022-09-07T16:56:49.738Z,100998.03
2022-09-07T16:59:26.615Z,101007.56
2022-09-07T17:01:59.338Z,101006.22
2022-09-07T17:04:32.442Z,101007.44
2022-09-07T17:07:05.423Z,101008.38
2022-09-07T17:09:38.220Z,101005.88
2022-09-07T17:12:12.593Z,101010.69
2022-09-07T17:14:45.660Z,101004.50
2022-09-07T17:17:19.979Z,101000.28
2022-09-07T17:19:53.127Z,100995.91
2022-09-07T17:22:26.509Z,100994.47
2022-09-07T17:24:59.222Z,100996.81
2022-09-07T17:27:33.281Z,100999.94
2022-09-07T17:30:07.009Z,100995.09
2022-09-07T17:32:39.741Z,101000.84
2022-09-07T17:35:12.451Z,100992.59
2022-09-07T17:37:45.051Z,100987.88
2022-09-07T17:40:17.813Z,100984.63
2022-09-07T17:45:44.750Z,100976.84
2022-09-07T17:48:17.497Z,100977.44
2022-09-07T17:51:01.079Z,100978.88
2022-09-07T17:53:34.847Z,100975.13
2022-09-07T17:56:09.471Z,100976.06
2022-09-07T17:58:44.996Z,100978.41
2022-09-07T18:01:20.042Z,100982.09
2022-09-07T18:03:52.884Z,100983.66
2022-09-07T18:06:26.731Z,100978.97
2022-09-07T18:08:59.981Z,100973.97
2022-09-07T18:11:49.329Z,100988.94
2022-09-07T18:14:23.910Z,100978.59
2022-09-07T18:16:57.096Z,100981.09
2022-09-07T18:19:29.846Z,100986.53
2022-09-07T18:22:03.857Z,100981.34
2022-09-07T18:24:37.220Z,100980.91
2022-09-07T18:27:10.119Z,100976.84
2022-09-07T18:29:44.355Z,100977.91
2022-09-07T18:32:17.738Z,100973.25
2022-09-07T18:34:50.997Z,100981.47
2022-09-07T18:37:24.014Z,100972.09
2022-09-07T18:39:56.489Z,100970.69
2022-09-07T18:42:30.347Z,100967.25
2022-09-07T18:47:57.799Z,100963.03
2022-09-07T18:50:31.624Z,100961.31
2022-09-07T18:53:16.252Z,100954.44
2022-09-07T18:55:50.712Z,100958.34
2022-09-07T18:58:24.405Z,100967.50
2022-09-07T19:01:03.360Z,100972.16
2022-09-07T19:03:37.533Z,100967.94
2022-09-07T19:06:12.967Z,100974.78
2022-09-07T19:08:46.977Z,100976.13
2022-09-07T19:11:21.989Z,100973.63
2022-09-07T19:13:58.574Z,100977.94
2022-09-07T19:16:33.405Z,100976.84
2022-09-07T19:19:08.035Z,100974.81
2022-09-07T19:21:45.134Z,100983.50
2022-09-07T19:24:19.960Z,100985.63
2022-09-07T19:26:55.775Z,100996.25
2022-09-07T19:29:32.415Z,100982.50
2022-09-07T19:32:10.759Z,100989.63
2022-09-07T19:34:45.612Z,100994.28
2022-09-07T19:37:18.364Z,101006.41
2022-09-07T19:39:51.678Z,101019.94
2022-09-07T19:42:25.362Z,101028.66
2022-09-07T19:44:58.114Z,101030.16
2022-09-07T19:47:32.095Z,101023.78
2022-09-07T19:50:06.275Z,101033.72
2022-09-07T19:52:39.073Z,101019.66
2022-09-07T19:55:12.598Z,101024.81
2022-09-07T19:57:47.487Z,101021.22
2022-09-07T20:00:20.374Z,101008.78
2022-09-07T20:02:54.930Z,100993.59
2022-09-07T20:05:30.972Z,100989.56
2022-09-07T20:08:03.754Z,100987.78
2022-09-07T20:10:37.676Z,100983.28
2022-09-07T20:13:10.511Z,100975.47
2022-09-07T20:15:43.263Z,100966.31
2022-09-07T20:18:17.525Z,100962.09
2022-09-07T20:20:50.565Z,100960.97
2022-09-07T20:23:23.163Z,100965.13
2022-09-07T20:25:59.459Z,100965.72
2022-09-07T20:28:33.135Z,100959.56
2022-09-07T20:31:08.302Z,100955.41
2022-09-07T20:33:43.662Z,100945.47
2022-09-07T20:36:18.838Z,100939.88
2022-09-07T20:38:54.505Z,100939.53
2022-09-07T20:41:29.829Z,100935.94
2022-09-07T20:44:05.793Z,100937.66
2022-09-07T20:46:38.754Z,100930.63
2022-09-07T20:49:12.956Z,100928.72
2022-09-07T20:51:45.729Z,100919.56
2022-09-07T20:54:18.997Z,100918.00
2022-09-07T20:56:51.830Z,100914.53
2022-09-07T20:59:25.374Z,100915.88
2022-09-07T21:01:58.397Z,100923.19
2022-09-07T21:04:32.393Z,100922.50
2022-09-07T21:07:05.186Z,100928.25
2022-09-07T21:09:37.880Z,100925.22
2022-09-07T21:12:11.815Z,100927.25
2022-09-07T21:14:46.220Z,100933.28
2022-09-07T21:17:19.157Z,100925.16
2022-09-07T21:19:53.466Z,100929.75
2022-09-07T21:22:26.398Z,100937.81
2022-09-07T21:24:59.253Z,100935.00
2022-09-07T21:27:38.627Z,100938.13
2022-09-07T21:30:12.693Z,100930.22
2022-09-07T21:32:45.659Z,100932.69
2022-09-07T21:35:19.907Z,100932.34
2022-09-07T21:37:53.420Z,100928.97
2022-09-07T21:40:26.090Z,100928.41
2022-09-07T21:42:58.805Z,100929.31
2022-09-07T21:45:32.323Z,100924.59
2022-09-07T21:48:05.390Z,100933.91
2022-09-07T21:50:39.418Z,100921.25
2022-09-07T21:53:12.688Z,100918.81
2022-09-07T21:58:18.182Z,100919.72
2022-09-07T22:00:50.872Z,100911.22
2022-09-07T22:03:31.312Z,100916.81
2022-09-07T22:06:05.708Z,100907.34
2022-09-07T22:08:40.786Z,100903.41
2022-09-07T22:11:15.995Z,100903.97
2022-09-07T22:13:49.315Z,100897.28
2022-09-07T22:16:22.112Z,100894.47
2022-09-07T22:18:54.992Z,100893.47
2022-09-07T22:21:30.696Z,100897.94
2022-09-07T22:24:05.939Z,100896.84
2022-09-07T22:26:39.427Z,100891.59
2022-09-07T22:29:13.190Z,100890.81
2022-09-07T22:31:45.967Z,100887.56
2022-09-07T22:34:18.680Z,100884.53
2022-09-07T22:36:52.964Z,100879.09
2022-09-07T22:39:25.939Z,100877.41
2022-09-07T22:41:58.550Z,100867.56
2022-09-07T22:47:21.495Z,100863.00
2022-09-07T22:49:54.351Z,100864.22
2022-09-07T22:52:28.386Z,100869.81
2022-09-07T22:55:01.162Z,100866.59
2022-09-07T22:57:33.787Z,100870.25
2022-09-07T23:00:07.992Z,100863.56
2022-09-07T23:02:40.638Z,100874.06
2022-09-07T23:05:13.814Z,100867.59
2022-09-07T23:07:50.621Z,100868.47
2022-09-07T23:10:23.489Z,100873.94
2022-09-07T23:12:56.173Z,100862.09
2022-09-07T23:15:29.534Z,100862.09
2022-09-07T23:18:02.262Z,100853.63
2022-09-07T23:20:35.227Z,100848.91
2022-09-07T23:23:09.881Z,100850.13
2022-09-07T23:25:43.734Z,100847.16
2022-09-07T23:28:16.579Z,100847.78
2022-09-07T23:30:49.771Z,100835.53
2022-09-07T23:33:22.362Z,100826.81
2022-09-07T23:35:59.875Z,100824.22
2022-09-07T23:38:37.314Z,100809.06
2022-09-07T23:41:10.048Z,100809.31
2022-09-07T23:43:42.793Z,100802.72
2022-09-07T23:46:16.511Z,100802.34
2022-09-07T23:48:49.814Z,100805.59
2022-09-07T23:51:24.473Z,100805.59
2022-09-07T23:53:59.238Z,100800.03
2022-09-07T23:56:32.647Z,100797.34
2022-09-07T23:59:06.345Z,100789.09
